Time;durP1;ratioP1;P1;durP2;ratioP2;P2;SDS_P1;SDS_P2;PMS_P1;PMS_P2;Temp;Humidity;BMP_temperature;BMP_pressure;BME280_temperature;BME280_humidity;BME280_pressure;Samples;Min_cycle;Max_cycle;Signal;HPM_P1;HPM_P2
2022/08/29 00:00:32;;;;;;;44.78;30.75;;;;;;;25.52;39.26;99202.41;5087190;28;20032;-73
2022/08/29 00:02:58;;;;;;;44.63;29.98;;;;;;;25.48;38.95;99200.38;5087164;28;20044;-69
2022/08/29 00:05:31;;;;;;;49.63;33.60;;;;;;;25.44;39.48;99197.31;5087472;28;20198;-73
2022/08/29 00:07:58;;;;;;;41.75;28.85;;;;;;;25.46;39.34;99192.50;5082320;28;20059;-70
2022/08/29 00:10:24;;;;;;;45.28;31.60;;;;;;;25.43;39.33;99192.94;5087303;28;20028;-73
2022/08/29 00:12:51;;;;;;;42.38;32.03;;;;;;;25.40;39.51;99188.78;5087188;28;20089;-72
2022/08/29 00:15:16;;;;;;;43.85;31.02;;;;;;;25.35;39.48;99185.09;5087248;28;20028;-71
2022/08/29 00:17:42;;;;;;;48.72;31.45;;;;;;;25.31;39.99;99178.47;5082964;28;20095;-68
2022/08/29 00:20:11;;;;;;;50.47;32.55;;;;;;;25.28;40.26;99177.88;5087336;28;20048;-71
2022/08/29 00:22:37;;;;;;;44.83;31.50;;;;;;;25.27;40.11;99170.81;5084814;28;20041;-69
2022/08/29 00:25:04;;;;;;;52.72;33.25;;;;;;;25.28;40.51;99169.75;5086922;28;20079;-71
2022/08/29 00:27:31;;;;;;;54.22;33.90;;;;;;;25.27;40.31;99165.38;5084232;28;20036;-70
2022/08/29 00:29:57;;;;;;;46.90;31.63;;;;;;;25.28;40.56;99155.41;5059018;28;20028;-70
2022/08/29 00:32:22;;;;;;;54.47;32.50;;;;;;;25.29;40.43;99149.75;5081993;28;20095;-70
2022/08/29 00:34:48;;;;;;;56.83;35.15;;;;;;;25.29;40.19;99151.63;5087537;28;20245;-71
2022/08/29 00:37:14;;;;;;;50.92;31.15;;;;;;;25.27;40.23;99145.63;5086930;28;20142;-71
2022/08/29 00:39:39;;;;;;;57.65;32.03;;;;;;;25.22;40.81;99140.84;5068924;28;20241;-72
2022/08/29 00:42:05;;;;;;;59.88;35.53;;;;;;;25.24;40.58;99136.03;5075330;28;20118;-69
2022/08/29 00:44:31;;;;;;;51.17;33.28;;;;;;;25.24;40.56;99133.34;5081713;28;20033;-70
2022/08/29 00:47:04;;;;;;;49.25;33.42;;;;;;;25.23;40.49;99131.69;5087161;28;20036;-70
2022/08/29 00:49:38;;;;;;;49.15;34.33;;;;;;;25.22;40.47;99127.31;5082636;28;20029;-69
2022/08/29 00:52:24;;;;;;;53.22;33.90;;;;;;;25.23;40.50;99128.97;5087250;28;20050;-71
2022/08/29 00:54:53;;;;;;;52.33;33.47;;;;;;;25.27;40.44;99121.25;5086694;28;20043;-70
2022/08/29 00:57:20;;;;;;;47.78;33.28;;;;;;;25.25;40.46;99113.34;5083283;28;20032;-70
2022/08/29 00:59:48;;;;;;;51.75;34.13;;;;;;;25.22;40.29;99104.84;5081854;28;20021;-71
2022/08/29 01:02:13;;;;;;;52.92;34.38;;;;;;;25.17;40.21;99100.13;5087160;28;20050;-70
2022/08/29 01:04:39;;;;;;;45.28;32.15;;;;;;;25.15;40.37;99099.53;5087099;28;20146;-68
2022/08/29 01:07:06;;;;;;;46.25;32.45;;;;;;;25.15;40.10;99099.53;5086698;28;20056;-69
2022/08/29 01:09:34;;;;;;;53.45;36.38;;;;;;;25.19;39.96;99095.31;5083978;28;20017;-69
2022/08/29 01:12:16;;;;;;;55.78;36.38;;;;;;;25.19;40.25;99089.06;5090195;28;20035;-68
2022/08/29 01:14:49;;;;;;;52.00;34.72;;;;;;;25.15;40.44;99091.41;5090190;28;20092;-72
2022/08/29 01:17:24;;;;;;;53.42;35.88;;;;;;;25.12;40.37;99076.44;5090262;28;20096;-72
2022/08/29 01:20:03;;;;;;;52.42;34.78;;;;;;;25.08;40.32;99075.25;5088008;28;20134;-72
2022/08/29 01:22:38;;;;;;;53.15;33.92;;;;;;;25.07;40.45;99070.88;5080382;28;20028;-70
2022/08/29 01:25:13;;;;;;;51.53;35.53;;;;;;;25.08;40.01;99075.25;5089612;28;20066;-70
2022/08/29 01:27:44;;;;;;;62.97;36.30;;;;;;;25.04;40.40;99073.22;5079553;28;20032;-72
2022/08/29 01:30:11;;;;;;;46.72;31.67;;;;;;;25.03;40.16;99068.88;5086186;28;20112;-74
2022/08/29 01:32:36;;;;;;;55.15;36.83;;;;;;;25.04;40.10;99065.91;5090223;28;20024;-70
2022/08/29 01:35:04;;;;;;;56.95;37.67;;;;;;;25.05;39.90;99058.63;5088135;28;20321;-72
2022/08/29 01:37:32;;;;;;;61.65;38.25;;;;;;;25.05;39.98;99054.03;5090110;28;20077;-70
2022/08/29 01:39:58;;;;;;;54.67;36.85;;;;;;;25.03;39.90;99052.63;5090347;28;20149;-70
2022/08/29 01:42:24;;;;;;;56.15;37.63;;;;;;;24.98;39.94;99042.50;5086266;28;20032;-70
2022/08/29 01:44:52;;;;;;;53.72;38.45;;;;;;;24.96;39.82;99037.28;5089860;28;20028;-71
2022/08/29 01:47:19;;;;;;;60.00;39.13;;;;;;;24.98;39.81;99045.19;5090204;28;20210;-72
2022/08/29 01:49:45;;;;;;;65.18;38.95;;;;;;;24.99;39.94;99036.03;5090121;28;20028;-72
2022/08/29 01:52:11;;;;;;;65.72;39.20;;;;;;;24.97;39.65;99033.53;5087501;28;20044;-74
2022/08/29 01:54:42;;;;;;;54.30;37.33;;;;;;;24.91;40.06;99034.44;5089854;28;20024;-71
2022/08/29 01:57:09;;;;;;;59.50;40.60;;;;;;;24.91;40.23;99031.75;5089983;28;20052;-71
2022/08/29 01:59:35;;;;;;;49.22;33.80;;;;;;;24.96;40.10;99039.19;5090034;28;20038;-72
2022/08/29 02:02:15;;;;;;;57.25;37.80;;;;;;;25.02;40.31;99023.91;5081897;28;20029;-74
2022/08/29 02:04:40;;;;;;;55.42;35.65;;;;;;;24.96;40.20;99042.69;5069754;28;20246;-71
2022/08/29 02:07:06;;;;;;;51.40;35.75;;;;;;;24.96;40.31;99021.03;5069753;28;20035;-71
2022/08/29 02:09:32;;;;;;;60.42;37.75;;;;;;;24.96;40.15;99020.22;5069759;28;20230;-73
2022/08/29 02:12:00;;;;;;;62.17;38.70;;;;;;;24.93;40.21;99018.78;5055271;28;20025;-72
2022/08/29 02:14:25;;;;;;;54.60;39.03;;;;;;;24.93;40.19;99018.78;5089775;28;20020;-73
2022/08/29 02:16:51;;;;;;;60.80;38.30;;;;;;;24.90;40.08;99011.16;5089525;28;20038;-72
2022/08/29 02:19:18;;;;;;;51.13;37.47;;;;;;;24.90;40.14;99019.28;5089697;28;20096;-71
2022/08/29 02:21:43;;;;;;;54.35;37.30;;;;;;;24.87;40.42;99016.16;5087586;28;20024;-71
2022/08/29 02:24:09;;;;;;;60.80;38.63;;;;;;;24.86;40.82;99009.94;5078810;28;20067;-73
2022/08/29 02:26:35;;;;;;;56.40;37.50;;;;;;;24.85;40.22;99012.91;5089420;28;20223;-71
2022/08/29 02:29:00;;;;;;;58.38;35.92;;;;;;;24.89;40.36;99012.19;5089443;28;20078;-71
2022/08/29 02:31:27;;;;;;;59.75;38.13;;;;;;;24.90;40.34;99013.00;5072434;28;20214;-73
2022/08/29 02:33:53;;;;;;;65.03;37.55;;;;;;;24.91;40.14;98993.03;5064182;28;20021;-74
2022/08/29 02:36:19;;;;;;;53.42;35.67;;;;;;;24.82;40.24;98993.34;5089136;28;20021;-72
2022/08/29 02:38:45;;;;;;;58.13;35.70;;;;;;;24.65;40.18;98979.56;5089215;28;20275;-71
2022/08/29 02:41:11;;;;;;;62.72;35.38;;;;;;;24.53;40.67;98974.13;5089137;28;20024;-75
2022/08/29 02:43:36;;;;;;;55.80;36.13;;;;;;;24.50;40.35;98998.06;5087162;28;20012;-72
2022/08/29 02:46:03;;;;;;;57.10;33.58;;;;;;;24.55;40.64;98997.41;5088926;28;20226;-72
2022/08/29 02:48:29;;;;;;;58.08;32.72;;;;;;;24.56;40.27;98994.47;5089084;28;20137;-71
2022/08/29 02:50:57;;;;;;;50.13;32.10;;;;;;;24.49;40.46;98999.09;5089109;28;20048;-74
2022/08/29 02:53:25;;;;;;;51.83;31.58;;;;;;;24.50;40.35;98992.66;5084588;28;20044;-72
2022/08/29 02:55:52;;;;;;;38.15;28.52;;;;;;;24.50;40.43;98985.38;5088805;28;20037;-71
2022/08/29 02:58:22;;;;;;;43.72;28.88;;;;;;;24.51;40.03;98976.22;5088829;28;20024;-73
2022/08/29 03:00:48;;;;;;;40.20;26.67;;;;;;;24.48;40.33;98978.56;5088935;28;20024;-72
2022/08/29 03:03:13;;;;;;;40.10;27.42;;;;;;;24.51;40.10;98978.06;5088410;28;20105;-71
2022/08/29 03:05:40;;;;;;;43.80;27.60;;;;;;;24.55;40.02;98976.59;5085185;28;20217;-74
2022/08/29 03:08:08;;;;;;;45.80;25.77;;;;;;;24.54;39.71;98972.22;5088546;28;20078;-73
2022/08/29 03:10:35;;;;;;;37.83;25.40;;;;;;;24.53;39.65;98978.69;5088627;28;20289;-72
2022/08/29 03:13:00;;;;;;;35.85;23.25;;;;;;;24.55;39.57;98981.19;5075079;28;20028;-75
2022/08/29 03:15:26;;;;;;;41.80;24.33;;;;;;;24.58;39.64;98981.53;5078350;28;20221;-72
2022/08/29 03:17:53;;;;;;;35.83;22.10;;;;;;;24.60;39.45;98973.19;5088366;28;20171;-72
2022/08/29 03:20:20;;;;;;;41.15;22.58;;;;;;;24.59;39.83;98961.56;5088458;28;20129;-75
2022/08/29 03:22:46;;;;;;;30.40;20.38;;;;;;;24.59;39.82;98972.38;5088227;28;20130;-75
2022/08/29 03:25:13;;;;;;;33.40;20.60;;;;;;;24.58;39.42;98959.91;5085811;28;20028;-72
2022/08/29 03:27:39;;;;;;;34.70;21.10;;;;;;;24.56;39.99;98964.72;5088278;28;20024;-72
2022/08/29 03:30:17;;;;;;;34.13;20.45;;;;;;;24.60;39.94;98965.06;5088277;28;20027;-72
2022/08/29 03:32:43;;;;;;;29.35;19.90;;;;;;;24.64;39.81;98977.09;5087584;28;20020;-73
2022/08/29 03:35:11;;;;;;;35.03;19.60;;;;;;;24.68;39.47;98978.31;5083641;28;20021;-72
2022/08/29 03:37:36;;;;;;;28.23;17.40;;;;;;;24.68;39.57;98981.81;5088163;28;20039;-73
2022/08/29 03:40:04;;;;;;;33.70;20.15;;;;;;;24.71;39.55;98971.63;5088192;28;20020;-71
2022/08/29 03:42:29;;;;;;;37.50;19.92;;;;;;;24.67;39.20;98947.72;5087960;28;20024;-72
2022/08/29 03:44:55;;;;;;;25.13;16.80;;;;;;;24.59;39.92;98960.72;5086854;28;20275;-69
2022/08/29 03:47:20;;;;;;;27.90;19.08;;;;;;;24.64;39.65;98969.81;5084254;28;20043;-71
2022/08/29 03:49:46;;;;;;;28.38;17.67;;;;;;;24.65;39.78;98960.63;5087989;28;20050;-71
2022/08/29 03:52:11;;;;;;;32.97;20.38;;;;;;;24.65;39.27;98968.75;5087907;28;20273;-74
2022/08/29 03:54:37;;;;;;;28.90;18.17;;;;;;;24.64;39.73;98968.97;5087804;28;20035;-72
2022/08/29 03:57:04;;;;;;;40.30;20.67;;;;;;;24.68;39.46;98964.78;5085094;28;20047;-70
2022/08/29 03:59:31;;;;;;;28.13;17.85;;;;;;;24.66;39.34;98939.84;5087823;28;20039;-71
2022/08/29 04:01:57;;;;;;;31.52;19.95;;;;;;;24.65;39.24;98939.00;5087791;28;20032;-71
2022/08/29 04:07:07;;;;;;;33.35;19.65;;;;;;;24.47;39.31;98936.34;5083602;28;20121;-73
2022/08/29 04:09:33;;;;;;;41.22;18.20;;;;;;;24.47;39.86;98936.34;5087682;28;20032;-71
2022/08/29 04:11:59;;;;;;;37.60;19.30;;;;;;;24.50;39.58;98925.03;5087734;28;20082;-72
2022/08/29 04:14:25;;;;;;;31.67;17.30;;;;;;;24.43;39.65;98918.91;5087528;28;20040;-72
2022/08/29 04:16:50;;;;;;;35.83;19.75;;;;;;;24.33;39.66;98912.16;5082755;28;20029;-71
2022/08/29 04:19:18;;;;;;;33.78;20.73;;;;;;;24.27;39.95;98912.22;5087483;28;20074;-71
2022/08/29 04:21:44;;;;;;;40.20;19.98;;;;;;;24.17;39.99;98893.84;5087486;28;20016;-70
2022/08/29 04:24:18;;;;;;;34.25;19.55;;;;;;;24.08;40.24;98882.50;5087272;28;20108;-72
2022/08/29 04:26:44;;;;;;;39.08;20.65;;;;;;;24.04;40.40;98882.13;5084226;28;20031;-71
2022/08/29 04:29:12;;;;;;;31.10;20.13;;;;;;;24.05;40.12;98882.97;5085757;28;20024;-71
2022/08/29 04:31:39;;;;;;;30.88;20.10;;;;;;;24.11;40.02;98882.06;5087352;28;20040;-73
2022/08/29 04:34:06;;;;;;;34.95;20.98;;;;;;;24.13;40.40;98881.84;5078255;28;20096;-72
2022/08/29 04:36:37;;;;;;;37.08;20.88;;;;;;;24.17;39.86;98873.03;5067100;28;20021;-72
2022/08/29 04:39:03;;;;;;;;;;;;;;;24.14;39.94;98884.28;5067497;28;20021;-72
2022/08/29 04:41:29;;;;;;;36.38;20.17;;;;;;;24.23;39.79;98876.72;5067155;28;19903;-73
2022/08/29 04:43:54;;;;;;;31.90;20.27;;;;;;;24.25;40.09;98873.81;5082731;28;20048;-73
2022/08/29 04:46:20;;;;;;;38.25;21.33;;;;;;;24.32;39.98;98871.81;5091303;28;20032;-70
2022/08/29 04:48:46;;;;;;;41.22;20.42;;;;;;;24.41;40.00;98873.16;5091279;28;20091;-73
2022/08/29 04:51:12;;;;;;;37.80;21.50;;;;;;;24.45;39.86;98868.94;5091320;28;20020;-72
2022/08/29 04:53:37;;;;;;;38.80;21.33;;;;;;;24.41;39.73;98875.03;5089608;28;20108;-72
2022/08/29 04:56:06;;;;;;;33.65;21.38;;;;;;;24.34;40.08;98881.34;5091060;28;20238;-73
2022/08/29 04:58:36;;;;;;;37.45;20.35;;;;;;;24.40;39.82;98873.38;5091094;28;20027;-72
2022/08/29 05:01:02;;;;;;;35.45;20.58;;;;;;;24.50;39.78;98885.31;5091143;28;20244;-72
2022/08/29 05:03:29;;;;;;;33.47;19.55;;;;;;;24.65;39.38;98863.25;5086219;28;20088;-73
2022/08/29 05:06:00;;;;;;;39.42;22.08;;;;;;;24.74;39.26;98876.50;5090987;28;20031;-72
2022/08/29 05:08:27;;;;;;;34.25;21.25;;;;;;;24.72;39.32;98889.44;5091107;28;20052;-71
2022/08/29 05:10:52;;;;;;;37.42;20.88;;;;;;;24.73;39.20;98901.91;5090873;28;20042;-73
2022/08/29 05:13:18;;;;;;;34.83;21.98;;;;;;;24.79;39.39;98901.81;5089127;28;20221;-70
2022/08/29 05:15:44;;;;;;;35.05;19.85;;;;;;;24.82;39.45;98881.56;5090169;28;20032;-71
2022/08/29 05:18:12;;;;;;;32.92;20.58;;;;;;;24.83;39.19;98892.19;5090805;28;20232;-73
2022/08/29 05:20:42;;;;;;;34.75;21.45;;;;;;;24.83;39.40;98891.34;5090839;28;20127;-70
2022/08/29 05:23:08;;;;;;;32.28;20.75;;;;;;;24.85;39.31;98883.84;5083436;28;20036;-70
2022/08/29 05:25:35;;;;;;;32.17;21.23;;;;;;;24.86;39.26;98880.06;5072149;28;20032;-71
2022/08/29 05:28:00;;;;;;;32.65;21.02;;;;;;;24.89;39.62;98873.34;5070549;28;20252;-73
2022/08/29 05:30:26;;;;;;;41.33;22.88;;;;;;;24.89;39.41;98866.09;5070845;28;20028;-73
2022/08/29 05:32:53;;;;;;;39.15;21.95;;;;;;;24.88;39.36;98872.56;5070462;28;20029;-70
2022/08/29 05:35:19;;;;;;;40.10;22.13;;;;;;;24.89;39.53;98857.13;5076788;28;20027;-72
2022/08/29 05:37:44;;;;;;;33.35;21.67;;;;;;;24.87;39.32;98864.66;5090372;28;20048;-73
2022/08/29 05:40:10;;;;;;;32.97;21.80;;;;;;;24.88;39.70;98861.72;5089732;28;20024;-73
2022/08/29 05:42:35;;;;;;;27.52;19.42;;;;;;;24.92;39.74;98872.91;5089430;28;20063;-73
2022/08/29 05:45:03;;;;;;;28.77;21.85;;;;;;;24.97;39.32;98884.69;5089972;28;20070;-71
2022/08/29 05:47:30;;;;;;;38.28;24.65;;;;;;;25.01;39.28;98868.78;5090156;28;20065;-73
2022/08/29 05:49:55;;;;;;;39.25;24.27;;;;;;;25.01;39.18;98865.28;5087719;28;20023;-73
2022/08/29 05:52:21;;;;;;;39.97;24.15;;;;;;;25.02;39.41;98861.53;5089592;28;20028;-71
2022/08/29 05:54:47;;;;;;;34.58;21.70;;;;;;;25.05;39.06;98870.00;5088938;28;20083;-72
2022/08/29 05:57:15;;;;;;;40.45;26.08;;;;;;;25.16;38.62;98854.84;5089845;28;20024;-73
2022/08/29 05:59:41;;;;;;;34.97;22.40;;;;;;;25.18;38.99;98860.84;5089656;28;20032;-74
2022/08/29 06:02:08;;;;;;;37.25;21.77;;;;;;;25.22;38.55;98858.50;5086650;28;20087;-74
2022/08/29 06:04:34;;;;;;;42.15;26.35;;;;;;;25.24;38.17;98862.59;5089612;28;20029;-72
2022/08/29 06:07:00;;;;;;;42.20;26.33;;;;;;;25.23;38.44;98876.38;5089812;28;20055;-72
2022/08/29 06:09:25;;;;;;;41.25;24.98;;;;;;;25.22;38.57;98880.97;5089269;28;20145;-71
2022/08/29 06:11:52;;;;;;;47.83;24.73;;;;;;;25.25;38.78;98869.66;5087478;28;20066;-69
2022/08/29 06:14:18;;;;;;;31.92;22.83;;;;;;;25.30;38.43;98877.09;5085248;28;20164;-73
2022/08/29 06:16:44;;;;;;;51.85;25.17;;;;;;;25.38;38.65;98881.31;5080299;28;20021;-73
2022/08/29 06:19:10;;;;;;;42.10;25.73;;;;;;;25.41;38.42;98875.44;5069569;28;20052;-72
2022/08/29 06:21:36;;;;;;;44.78;25.40;;;;;;;25.44;38.24;98877.72;5076768;28;20083;-73
2022/08/29 06:24:02;;;;;;;39.75;23.95;;;;;;;25.46;38.35;98859.38;5089276;28;20048;-73
2022/08/29 06:26:30;;;;;;;40.03;25.50;;;;;;;25.52;38.50;98857.59;5089598;28;20142;-70
2022/08/29 06:28:56;;;;;;;49.30;25.27;;;;;;;25.55;38.21;98847.09;5087343;28;20032;-71
2022/08/29 06:31:26;;;;;;;36.72;24.48;;;;;;;25.55;38.37;98851.72;5089485;28;20184;-74
2022/08/29 06:33:55;;;;;;;35.47;24.55;;;;;;;25.56;38.55;98854.16;5089223;28;20024;-71
2022/08/29 06:36:21;;;;;;;41.85;27.77;;;;;;;25.54;38.28;98856.28;5089331;28;20033;-70
2022/08/29 06:38:47;;;;;;;36.05;24.90;;;;;;;25.51;38.33;98873.03;5089264;28;20082;-73
2022/08/29 06:41:16;;;;;;;39.08;25.85;;;;;;;25.47;38.33;98863.72;5089357;28;20024;-74
2022/08/29 06:43:42;;;;;;;43.03;27.02;;;;;;;25.46;38.32;98872.91;5087831;28;20138;-72
2022/08/29 06:46:08;;;;;;;42.05;26.48;;;;;;;25.44;38.42;98866.91;5089191;28;20091;-73
2022/08/29 06:48:34;;;;;;;48.70;26.65;;;;;;;25.46;38.14;98858.53;5088966;28;20035;-72
2022/08/29 06:51:01;;;;;;;53.58;27.80;;;;;;;25.43;38.24;98855.25;5089034;28;20028;-71
2022/08/29 06:53:27;;;;;;;40.08;25.20;;;;;;;25.44;38.56;98865.00;5088707;28;20024;-71
2022/08/29 06:55:53;;;;;;;35.42;23.17;;;;;;;25.50;38.69;98863.25;5086883;28;20093;-69
2022/08/29 06:58:18;;;;;;;39.53;25.60;;;;;;;25.54;38.47;98853.56;5088911;28;20021;-73
2022/08/29 07:00:44;;;;;;;43.70;25.77;;;;;;;25.59;38.47;98840.16;5088635;28;20141;-73
2022/08/29 07:03:10;;;;;;;37.28;27.63;;;;;;;25.63;38.35;98847.81;5088629;28;20295;-71
2022/08/29 07:05:35;;;;;;;43.70;25.73;;;;;;;25.66;38.40;98841.94;5088737;28;20016;-72
2022/08/29 07:08:01;;;;;;;37.53;25.98;;;;;;;25.73;38.30;98861.59;5087681;28;20074;-71
2022/08/29 07:10:27;;;;;;;42.10;26.67;;;;;;;25.79;38.20;98859.81;5088591;28;20016;-72
2022/08/29 07:12:53;;;;;;;37.70;24.35;;;;;;;25.79;38.36;98857.09;5071783;28;20063;-72
2022/08/29 07:15:20;;;;;;;38.05;25.98;;;;;;;25.82;38.32;98851.22;5081222;28;20024;-72
2022/08/29 07:17:46;;;;;;;34.53;24.52;;;;;;;25.80;38.11;98851.47;5087700;28;20137;-70
2022/08/29 07:20:13;;;;;;;39.78;26.02;;;;;;;25.82;38.42;98854.72;5088358;28;20225;-73
2022/08/29 07:22:39;;;;;;;37.47;25.17;;;;;;;25.86;38.25;98860.53;5087878;28;20036;-69
2022/08/29 07:25:05;;;;;;;42.95;25.65;;;;;;;25.89;37.85;98850.03;5088111;28;20280;-71
2022/08/29 07:27:31;;;;;;;34.95;24.17;;;;;;;25.94;37.88;98851.19;5088122;28;20032;-72
2022/08/29 07:29:56;;;;;;;41.22;24.45;;;;;;;25.95;38.12;98831.97;5088162;28;20049;-73
2022/08/29 07:32:22;;;;;;;37.75;24.83;;;;;;;25.98;37.70;98842.34;5087991;28;20044;-73
2022/08/29 07:34:47;;;;;;;37.50;26.20;;;;;;;26.02;37.62;98842.69;5072893;28;20013;-72
2022/08/29 07:37:13;;;;;;;39.28;24.25;;;;;;;26.03;37.76;98852.47;5067881;28;20055;-71
2022/08/29 07:39:38;;;;;;;35.03;23.52;;;;;;;26.04;37.80;98857.63;5067767;28;20251;-70
2022/08/29 07:42:04;;;;;;;42.60;23.10;;;;;;;26.09;37.86;98856.09;5067613;28;20017;-73
2022/08/29 07:44:31;;;;;;;37.90;25.08;;;;;;;26.10;37.64;98845.00;5084588;28;20079;-74
2022/08/29 07:46:58;;;;;;;32.28;23.77;;;;;;;26.12;37.79;98847.53;5087845;28;20012;-70
2022/08/29 07:49:25;;;;;;;41.72;23.70;;;;;;;26.16;37.52;98851.41;5087842;28;20024;-72
2022/08/29 07:51:52;;;;;;;33.45;23.33;;;;;;;26.17;37.50;98847.63;5087715;28;20032;-70
2022/08/29 07:54:18;;;;;;;36.58;21.92;;;;;;;26.16;37.38;98841.38;5087832;28;20025;-72
2022/08/29 07:56:46;;;;;;;40.67;22.52;;;;;;;26.20;37.48;98847.13;5087511;28;20180;-73
2022/08/29 07:59:12;;;;;;;33.25;22.98;;;;;;;26.23;37.48;98851.28;5076477;28;20027;-72
2022/08/29 08:01:38;;;;;;;40.00;22.48;;;;;;;26.24;37.40;98856.44;5067559;28;20044;-71
2022/08/29 08:04:05;;;;;;;33.53;21.02;;;;;;;26.27;37.25;98855.13;5067570;28;20050;-72
2022/08/29 08:06:31;;;;;;;40.88;23.40;;;;;;;26.29;37.04;98855.72;5067652;28;20230;-72
2022/08/29 08:08:57;;;;;;;27.75;20.52;;;;;;;26.28;37.18;98852.19;5067632;28;20090;-71
2022/08/29 08:11:23;;;;;;;30.05;18.58;;;;;;;26.29;36.97;98842.16;5073124;28;20028;-72
2022/08/29 08:13:51;;;;;;;31.13;18.75;;;;;;;26.33;36.94;98837.91;5087180;28;20039;-69
2022/08/29 08:16:19;;;;;;;37.40;18.27;;;;;;;26.35;36.68;98842.00;5087515;28;20031;-70
2022/08/29 08:18:45;;;;;;;29.20;17.58;;;;;;;26.38;36.88;98837.19;5086676;28;20051;-70
2022/08/29 08:21:11;;;;;;;25.98;15.88;;;;;;;26.39;36.60;98836.13;5086904;28;20180;-70
2022/08/29 08:23:37;;;;;;;21.67;15.98;;;;;;;26.40;36.58;98833.16;5076774;28;20051;-70
2022/08/29 08:26:03;;;;;;;35.55;16.55;;;;;;;26.43;36.84;98823.72;5067354;28;20020;-73
2022/08/29 08:28:29;;;;;;;20.90;13.25;;;;;;;26.46;36.81;98843.03;5072264;28;20021;-70
2022/08/29 08:30:57;;;;;;;21.15;10.15;;;;;;;26.48;36.13;98835.50;5083983;28;20052;-71
2022/08/29 08:33:23;;;;;;;21.67;10.93;;;;;;;26.48;36.21;98831.94;5087110;28;20237;-70
2022/08/29 08:35:49;;;;;;;17.90;8.90;;;;;;;26.50;36.25;98843.38;5087078;28;20253;-72
2022/08/29 08:38:15;;;;;;;18.40;9.85;;;;;;;26.50;36.21;98843.38;5086805;28;20024;-72
2022/08/29 08:41:21;;;;;;;17.90;9.13;;;;;;;26.53;36.32;98833.94;5086119;28;20038;-71
2022/08/29 08:43:49;;;;;;;17.95;6.70;;;;;;;26.52;36.33;98840.44;5086280;28;20090;-72
2022/08/29 08:46:15;;;;;;;12.65;7.85;;;;;;;26.53;36.65;98837.47;5087106;28;20196;-72
2022/08/29 08:48:42;;;;;;;25.10;6.68;;;;;;;26.55;36.59;98835.34;5087231;28;20028;-72
2022/08/29 08:51:21;;;;;;;18.65;8.05;;;;;;;26.57;36.61;98829.66;5086985;28;20025;-74
2022/08/29 08:53:51;;;;;;;19.30;8.88;;;;;;;26.62;36.58;98840.63;5086254;28;20190;-71
2022/08/29 08:56:41;;;;;;;15.70;6.57;;;;;;;26.63;36.92;98845.78;5086938;28;20036;-70
2022/08/29 08:59:06;;;;;;;26.07;6.17;;;;;;;26.66;36.75;98841.78;5086760;28;20024;-70
2022/08/29 09:01:41;;;;;;;16.40;4.90;;;;;;;26.69;37.10;98838.56;5086399;28;20024;-71
2022/08/29 09:04:34;;;;;;;19.40;5.40;;;;;;;26.72;37.12;98845.41;5085319;28;20028;-70
2022/08/29 09:07:18;;;;;;;18.30;4.45;;;;;;;26.72;37.08;98840.78;5078889;28;20016;-70
2022/08/29 09:10:02;;;;;;;15.50;4.07;;;;;;;26.75;37.34;98834.06;5073186;28;20025;-70
2022/08/29 09:12:49;;;;;;;22.80;4.22;;;;;;;26.74;37.26;98825.09;5078922;28;20229;-67
2022/08/29 09:15:19;;;;;;;16.23;5.63;;;;;;;26.76;37.27;98838.44;5082774;28;20024;-69
2022/08/29 09:17:59;;;;;;;28.33;5.80;;;;;;;26.77;37.43;98859.03;5087263;28;20048;-69
2022/08/29 09:20:30;;;;;;;16.95;5.13;;;;;;;26.79;37.73;98852.34;5084490;28;20029;-70
2022/08/29 09:23:01;;;;;;;15.45;4.97;;;;;;;26.80;37.70;98870.28;5085138;28;20035;-69
2022/08/29 09:25:28;;;;;;;13.60;3.80;;;;;;;26.77;37.80;98853.63;5086484;28;20027;-70
2022/08/29 09:27:53;;;;;;;17.10;3.83;;;;;;;26.77;37.74;98857.16;5086729;28;20047;-71
2022/08/29 09:30:26;;;;;;;11.48;3.78;;;;;;;26.76;37.85;98863.66;5087333;28;20017;-70
2022/08/29 09:32:56;;;;;;;8.55;3.25;;;;;;;26.76;37.85;98869.09;5089976;28;20027;-70
2022/08/29 09:35:27;;;;;;;20.58;5.63;;;;;;;26.77;37.75;98876.16;5090306;28;20103;-71
2022/08/29 09:38:00;;;;;;;14.00;3.45;;;;;;;26.77;37.71;98870.72;5090392;28;20016;-71
2022/08/29 09:40:51;;;;;;;18.55;3.85;;;;;;;26.78;37.73;98872.38;5089574;28;20095;-69
2022/08/29 09:43:18;;;;;;;11.70;4.00;;;;;;;26.79;37.86;98865.09;5090375;28;20088;-71
2022/08/29 09:46:07;;;;;;;15.45;4.30;;;;;;;26.83;37.91;98860.00;5090222;28;20042;-70
2022/08/29 09:48:34;;;;;;;7.40;3.17;;;;;;;26.83;37.94;98860.81;5088436;28;20017;-71
2022/08/29 09:51:20;;;;;;;18.25;3.53;;;;;;;26.85;37.93;98866.00;5089695;28;20091;-69
2022/08/29 09:53:46;;;;;;;19.77;4.07;;;;;;;26.86;38.05;98854.91;5090408;28;20178;-71
2022/08/29 09:56:26;;;;;;;9.48;3.40;;;;;;;26.90;37.73;98866.09;5089931;28;20020;-72
2022/08/29 09:59:15;;;;;;;16.55;3.53;;;;;;;26.93;38.05;98852.03;5086289;28;20016;-69
2022/08/29 10:01:41;;;;;;;9.23;3.53;;;;;;;26.93;38.19;98857.47;5089073;28;20024;-67
2022/08/29 10:04:07;;;;;;;14.65;4.65;;;;;;;26.97;37.99;98850.50;5087666;28;20083;-71
2022/08/29 10:06:38;;;;;;;16.60;4.18;;;;;;;26.99;37.83;98856.47;5089855;28;20031;-72
2022/08/29 10:09:05;;;;;;;;;;;;;;;26.90;37.61;98856.06;5089557;28;20020;-71
2022/08/29 10:11:31;;;;;;;16.58;3.83;;;;;;;26.95;37.58;98839.03;5088216;28;19922;-73
2022/08/29 10:14:08;;;;;;;12.05;3.45;;;;;;;26.98;37.71;98841.28;5089031;28;20141;-73
2022/08/29 10:16:47;;;;;;;16.38;3.90;;;;;;;27.01;37.37;98843.47;5089438;28;20249;-72
2022/08/29 10:19:19;;;;;;;22.27;4.72;;;;;;;27.02;37.34;98850.56;5089713;28;20110;-74
2022/08/29 10:22:14;;;;;;;13.07;4.00;;;;;;;27.02;37.01;98866.03;5088176;28;20028;-71
2022/08/29 10:24:56;;;;;;;24.67;4.43;;;;;;;27.00;37.15;98874.41;5089385;28;20257;-72
2022/08/29 10:27:36;;;;;;;15.40;4.38;;;;;;;26.99;37.14;98877.38;5089206;28;20029;-71
2022/08/29 10:30:19;;;;;;;15.95;3.95;;;;;;;26.97;37.15;98874.91;5089027;28;20033;-71
2022/08/29 10:33:03;;;;;;;17.13;3.90;;;;;;;26.95;37.04;98866.19;5085554;28;20032;-72
2022/08/29 10:36:05;;;;;;;23.33;5.35;;;;;;;26.91;37.26;98859.59;5088841;28;20247;-70
2022/08/29 10:38:59;;;;;;;16.90;4.18;;;;;;;26.89;37.32;98869.88;5087057;28;20040;-69
2022/08/29 10:41:45;;;;;;;20.65;4.25;;;;;;;26.91;37.45;98894.88;5088074;28;20043;-72
2022/08/29 10:44:16;;;;;;;21.20;4.10;;;;;;;26.90;37.46;98885.09;5088659;28;20043;-69
2022/08/29 10:46:54;;;;;;;25.88;4.70;;;;;;;26.90;37.42;98885.09;5088064;28;20133;-71
2022/08/29 10:49:47;;;;;;;21.17;4.63;;;;;;;26.91;37.57;98878.59;5087470;28;20032;-69
2022/08/29 10:52:46;;;;;;;21.90;4.55;;;;;;;26.91;37.57;98878.59;5088340;28;20146;-70
2022/08/29 10:55:21;;;;;;;15.57;4.13;;;;;;;26.91;37.60;98870.47;5088567;28;20020;-70
2022/08/29 10:58:05;;;;;;;22.17;4.85;;;;;;;26.90;37.85;98882.38;5079170;28;20137;-69
2022/08/29 11:00:51;;;;;;;10.15;3.72;;;;;;;26.88;37.81;98893.50;5088713;28;20024;-69
2022/08/29 11:03:27;;;;;;;22.85;4.60;;;;;;;26.90;37.93;98885.09;5088199;28;20042;-69
2022/08/29 11:06:05;;;;;;;15.13;3.92;;;;;;;26.89;38.21;98869.88;5088306;28;20016;-70
2022/08/29 11:08:58;;;;;;;13.18;3.53;;;;;;;26.88;38.33;98874.50;5088279;28;20103;-71
2022/08/29 11:11:25;;;;;;;19.90;4.72;;;;;;;26.90;38.69;98874.25;5079916;28;20032;-75
2022/08/29 11:13:59;;;;;;;18.70;4.68;;;;;;;26.90;38.81;98885.09;5087945;28;20059;-73
2022/08/29 11:18:17;;;;;;;16.30;4.47;;;;;;;26.90;38.65;98891.38;5199730;27;20228;-71
2022/08/29 11:20:49;;;;;;;14.75;3.95;;;;;;;26.92;39.04;98889.19;5181024;27;20014;-72
2022/08/29 11:23:37;;;;;;;31.20;5.25;;;;;;;26.95;39.01;98906.91;5187647;27;20022;-71
2022/08/29 11:26:15;;;;;;;19.02;4.88;;;;;;;26.96;39.04;98895.00;5187539;27;20028;-70
2022/08/29 11:29:14;;;;;;;20.27;4.10;;;;;;;26.97;39.05;98907.50;5187489;27;20221;-70
2022/08/29 11:32:17;;;;;;;11.43;4.40;;;;;;;26.96;38.96;98916.69;5187354;27;20041;-71
2022/08/29 11:34:55;;;;;;;16.83;4.82;;;;;;;26.95;38.98;98921.28;5152761;27;20034;-71